Chalk Butte, South Dakota
Current Conditions -  °F | °C
As of 10:39 AM on Wednesday 26 Nov 2014 (Local Time) from KRCA Reporting Station
Haze Haze  
Wind Chill: 19°   Ceiling: 1000
Heat Index: 27°   Visibility: 4mi
Dew Point: 23°   Wind: 7mph
Humidity: 86%   Direction: 190°S
Pressure: 30.23"   Gusts: NA
Location:  44.653°N, 102.847°W
Report Text: KRCA 261739Z 19006KT 4SM BR BKN010 OVC020 M03/M05 A3023 RMK AO2A
Loading
Personal Weather Stations






























Interactive Weather Map New forecast layout! Learn more

10-Day Weather Forecast

Advertisements
Track Severe Weather on mobile